sensor_id;sensor_type;location;lat;lon;timestamp;P1;durP1;ratioP1;P2;durP2;ratioP2
11238;SDS011;5677;48.488;13.436;2024-01-10T00:02:21;5.27;;;3.00;;
11238;SDS011;5677;48.488;13.436;2024-01-10T00:04:48;3.70;;;2.93;;
11238;SDS011;5677;48.488;13.436;2024-01-10T00:07:15;3.90;;;2.80;;
11238;SDS011;5677;48.488;13.436;2024-01-10T00:09:41;3.07;;;2.73;;
11238;SDS011;5677;48.488;13.436;2024-01-10T00:12:08;4.07;;;2.90;;
11238;SDS011;5677;48.488;13.436;2024-01-10T00:14:36;4.33;;;3.27;;
11238;SDS011;5677;48.488;13.436;2024-01-10T00:17:03;3.93;;;3.23;;
11238;SDS011;5677;48.488;13.436;2024-01-10T00:19:30;3.57;;;2.90;;
11238;SDS011;5677;48.488;13.436;2024-01-10T00:21:57;3.97;;;3.10;;
11238;SDS011;5677;48.488;13.436;2024-01-10T00:24:23;3.83;;;2.73;;
11238;SDS011;5677;48.488;13.436;2024-01-10T00:26:50;4.10;;;3.10;;
11238;SDS011;5677;48.488;13.436;2024-01-10T00:29:17;3.33;;;2.70;;
11238;SDS011;5677;48.488;13.436;2024-01-10T00:31:45;4.17;;;3.07;;
11238;SDS011;5677;48.488;13.436;2024-01-10T00:34:11;3.73;;;3.00;;
11238;SDS011;5677;48.488;13.436;2024-01-10T00:36:39;3.57;;;2.80;;
11238;SDS011;5677;48.488;13.436;2024-01-10T00:39:06;3.40;;;2.87;;
11238;SDS011;5677;48.488;13.436;2024-01-10T00:41:32;4.60;;;3.50;;
11238;SDS011;5677;48.488;13.436;2024-01-10T00:43:59;3.80;;;3.23;;
11238;SDS011;5677;48.488;13.436;2024-01-10T00:46:26;3.90;;;2.90;;
11238;SDS011;5677;48.488;13.436;2024-01-10T00:48:54;3.00;;;2.70;;
11238;SDS011;5677;48.488;13.436;2024-01-10T00:51:21;4.07;;;3.23;;
11238;SDS011;5677;48.488;13.436;2024-01-10T00:53:47;3.33;;;2.87;;
11238;SDS011;5677;48.488;13.436;2024-01-10T00:56:14;3.63;;;3.07;;
11238;SDS011;5677;48.488;13.436;2024-01-10T00:58:41;3.40;;;3.10;;
11238;SDS011;5677;48.488;13.436;2024-01-10T01:01:08;5.00;;;3.30;;
11238;SDS011;5677;48.488;13.436;2024-01-10T01:03:35;4.00;;;2.80;;
11238;SDS011;5677;48.488;13.436;2024-01-10T01:06:03;4.67;;;3.23;;
11238;SDS011;5677;48.488;13.436;2024-01-10T01:08:30;4.17;;;3.13;;
11238;SDS011;5677;48.488;13.436;2024-01-10T01:10:56;4.33;;;2.97;;
11238;SDS011;5677;48.488;13.436;2024-01-10T01:13:23;3.00;;;2.70;;
11238;SDS011;5677;48.488;13.436;2024-01-10T01:15:50;3.97;;;3.00;;
11238;SDS011;5677;48.488;13.436;2024-01-10T01:18:17;3.60;;;2.87;;
11238;SDS011;5677;48.488;13.436;2024-01-10T01:20:44;3.10;;;2.63;;
11238;SDS011;5677;48.488;13.436;2024-01-10T01:23:15;4.10;;;3.17;;
11238;SDS011;5677;48.488;13.436;2024-01-10T01:25:42;3.93;;;2.90;;
11238;SDS011;5677;48.488;13.436;2024-01-10T01:28:08;3.70;;;3.20;;
11238;SDS011;5677;48.488;13.436;2024-01-10T01:30:35;3.33;;;2.60;;
11238;SDS011;5677;48.488;13.436;2024-01-10T01:33:03;3.57;;;2.70;;
11238;SDS011;5677;48.488;13.436;2024-01-10T01:35:30;4.93;;;2.80;;
11238;SDS011;5677;48.488;13.436;2024-01-10T01:37:57;3.50;;;2.70;;
11238;SDS011;5677;48.488;13.436;2024-01-10T01:40:25;3.20;;;2.90;;
11238;SDS011;5677;48.488;13.436;2024-01-10T01:42:52;3.67;;;2.70;;
11238;SDS011;5677;48.488;13.436;2024-01-10T01:45:19;3.00;;;2.70;;
11238;SDS011;5677;48.488;13.436;2024-01-10T01:47:45;4.23;;;3.07;;
11238;SDS011;5677;48.488;13.436;2024-01-10T01:50:12;3.13;;;2.83;;
11238;SDS011;5677;48.488;13.436;2024-01-10T01:52:39;3.70;;;3.00;;
11238;SDS011;5677;48.488;13.436;2024-01-10T01:55:06;3.57;;;2.80;;
11238;SDS011;5677;48.488;13.436;2024-01-10T01:57:36;3.20;;;2.77;;
11238;SDS011;5677;48.488;13.436;2024-01-10T02:00:04;2.97;;;2.47;;
11238;SDS011;5677;48.488;13.436;2024-01-10T02:02:32;3.37;;;2.67;;
11238;SDS011;5677;48.488;13.436;2024-01-10T02:05:00;4.20;;;2.80;;
11238;SDS011;5677;48.488;13.436;2024-01-10T02:07:27;3.40;;;3.00;;
11238;SDS011;5677;48.488;13.436;2024-01-10T02:09:53;3.23;;;2.63;;
11238;SDS011;5677;48.488;13.436;2024-01-10T02:12:20;4.23;;;3.23;;
11238;SDS011;5677;48.488;13.436;2024-01-10T02:14:49;3.63;;;2.83;;
11238;SDS011;5677;48.488;13.436;2024-01-10T02:17:15;3.27;;;2.77;;
11238;SDS011;5677;48.488;13.436;2024-01-10T02:19:42;3.77;;;2.97;;
11238;SDS011;5677;48.488;13.436;2024-01-10T02:22:09;3.50;;;2.60;;
11238;SDS011;5677;48.488;13.436;2024-01-10T02:24:36;3.10;;;2.80;;
11238;SDS011;5677;48.488;13.436;2024-01-10T02:27:05;4.50;;;2.80;;
11238;SDS011;5677;48.488;13.436;2024-01-10T02:29:31;3.13;;;2.80;;
11238;SDS011;5677;48.488;13.436;2024-01-10T02:31:59;3.13;;;2.47;;
11238;SDS011;5677;48.488;13.436;2024-01-10T02:34:26;2.73;;;2.47;;
11238;SDS011;5677;48.488;13.436;2024-01-10T02:36:53;3.17;;;2.70;;
11238;SDS011;5677;48.488;13.436;2024-01-10T02:39:19;2.90;;;2.60;;
11238;SDS011;5677;48.488;13.436;2024-01-10T02:41:46;4.40;;;2.70;;
11238;SDS011;5677;48.488;13.436;2024-01-10T02:44:14;3.80;;;2.60;;
11238;SDS011;5677;48.488;13.436;2024-01-10T02:46:42;3.80;;;3.00;;
11238;SDS011;5677;48.488;13.436;2024-01-10T02:49:09;3.90;;;2.87;;
11238;SDS011;5677;48.488;13.436;2024-01-10T02:51:35;3.30;;;3.00;;
11238;SDS011;5677;48.488;13.436;2024-01-10T02:54:02;3.37;;;2.50;;
11238;SDS011;5677;48.488;13.436;2024-01-10T02:56:29;4.00;;;2.83;;
11238;SDS011;5677;48.488;13.436;2024-01-10T02:58:56;3.87;;;3.00;;
11238;SDS011;5677;48.488;13.436;2024-01-10T03:01:24;4.23;;;2.90;;
11238;SDS011;5677;48.488;13.436;2024-01-10T03:03:50;4.13;;;2.93;;
11238;SDS011;5677;48.488;13.436;2024-01-10T03:06:17;3.27;;;2.60;;
11238;SDS011;5677;48.488;13.436;2024-01-10T03:08:44;4.20;;;2.67;;
11238;SDS011;5677;48.488;13.436;2024-01-10T03:11:10;3.67;;;2.83;;
11238;SDS011;5677;48.488;13.436;2024-01-10T03:13:37;4.43;;;3.00;;
11238;SDS011;5677;48.488;13.436;2024-01-10T03:16:04;2.97;;;2.43;;
11238;SDS011;5677;48.488;13.436;2024-01-10T03:18:33;3.03;;;2.53;;
11238;SDS011;5677;48.488;13.436;2024-01-10T03:21:00;4.13;;;2.70;;
11238;SDS011;5677;48.488;13.436;2024-01-10T03:23:26;3.10;;;2.50;;
11238;SDS011;5677;48.488;13.436;2024-01-10T03:25:53;4.20;;;2.90;;
11238;SDS011;5677;48.488;13.436;2024-01-10T03:28:21;4.27;;;3.07;;
11238;SDS011;5677;48.488;13.436;2024-01-10T03:30:48;3.30;;;3.00;;
11238;SDS011;5677;48.488;13.436;2024-01-10T03:33:15;3.50;;;3.00;;
11238;SDS011;5677;48.488;13.436;2024-01-10T03:35:43;3.30;;;2.87;;
11238;SDS011;5677;48.488;13.436;2024-01-10T03:38:10;2.97;;;2.57;;
11238;SDS011;5677;48.488;13.436;2024-01-10T03:40:36;3.30;;;2.87;;
11238;SDS011;5677;48.488;13.436;2024-01-10T03:43:03;3.43;;;2.70;;
11238;SDS011;5677;48.488;13.436;2024-01-10T03:45:30;3.73;;;2.83;;
11238;SDS011;5677;48.488;13.436;2024-01-10T03:47:57;3.20;;;2.47;;
11238;SDS011;5677;48.488;13.436;2024-01-10T03:50:23;2.80;;;2.40;;
11238;SDS011;5677;48.488;13.436;2024-01-10T03:52:51;3.73;;;2.73;;
11238;SDS011;5677;48.488;13.436;2024-01-10T03:55:18;3.30;;;2.83;;
11238;SDS011;5677;48.488;13.436;2024-01-10T03:57:45;2.60;;;2.40;;
11238;SDS011;5677;48.488;13.436;2024-01-10T04:00:12;3.93;;;3.03;;
11238;SDS011;5677;48.488;13.436;2024-01-10T04:02:39;4.10;;;2.60;;
11238;SDS011;5677;48.488;13.436;2024-01-10T04:05:06;3.43;;;2.60;;
11238;SDS011;5677;48.488;13.436;2024-01-10T04:07:34;3.40;;;2.60;;
11238;SDS011;5677;48.488;13.436;2024-01-10T04:10:03;2.90;;;2.50;;
11238;SDS011;5677;48.488;13.436;2024-01-10T04:12:32;3.80;;;2.80;;
11238;SDS011;5677;48.488;13.436;2024-01-10T04:14:59;2.57;;;2.37;;
11238;SDS011;5677;48.488;13.436;2024-01-10T04:17:25;3.10;;;2.43;;
11238;SDS011;5677;48.488;13.436;2024-01-10T04:19:52;2.97;;;2.50;;
11238;SDS011;5677;48.488;13.436;2024-01-10T04:22:18;3.33;;;2.57;;
11238;SDS011;5677;48.488;13.436;2024-01-10T04:24:45;3.07;;;2.53;;
11238;SDS011;5677;48.488;13.436;2024-01-10T04:27:13;3.80;;;3.00;;
11238;SDS011;5677;48.488;13.436;2024-01-10T04:29:39;3.10;;;2.60;;
11238;SDS011;5677;48.488;13.436;2024-01-10T04:32:06;4.27;;;2.97;;
11238;SDS011;5677;48.488;13.436;2024-01-10T04:34:33;3.63;;;2.47;;
11238;SDS011;5677;48.488;13.436;2024-01-10T04:37:00;3.17;;;2.23;;
11238;SDS011;5677;48.488;13.436;2024-01-10T04:39:27;3.77;;;2.77;;
11238;SDS011;5677;48.488;13.436;2024-01-10T04:41:54;3.27;;;2.47;;
11238;SDS011;5677;48.488;13.436;2024-01-10T04:44:22;2.97;;;2.63;;
11238;SDS011;5677;48.488;13.436;2024-01-10T04:46:49;2.83;;;2.40;;
11238;SDS011;5677;48.488;13.436;2024-01-10T04:49:16;4.00;;;2.97;;
11238;SDS011;5677;48.488;13.436;2024-01-10T04:51:42;3.97;;;2.90;;
11238;SDS011;5677;48.488;13.436;2024-01-10T04:54:10;2.97;;;2.67;;
11238;SDS011;5677;48.488;13.436;2024-01-10T04:56:37;3.43;;;2.90;;
11238;SDS011;5677;48.488;13.436;2024-01-10T04:59:04;2.50;;;2.27;;
11238;SDS011;5677;48.488;13.436;2024-01-10T05:01:32;2.93;;;2.33;;
11238;SDS011;5677;48.488;13.436;2024-01-10T05:03:59;3.63;;;2.73;;
11238;SDS011;5677;48.488;13.436;2024-01-10T05:06:26;3.03;;;2.60;;
11238;SDS011;5677;48.488;13.436;2024-01-10T05:08:53;3.53;;;2.90;;
11238;SDS011;5677;48.488;13.436;2024-01-10T05:11:23;3.00;;;2.50;;
11238;SDS011;5677;48.488;13.436;2024-01-10T05:13:50;3.00;;;2.70;;
11238;SDS011;5677;48.488;13.436;2024-01-10T05:16:17;3.03;;;2.70;;
11238;SDS011;5677;48.488;13.436;2024-01-10T05:18:45;3.17;;;2.80;;
11238;SDS011;5677;48.488;13.436;2024-01-10T05:21:12;4.40;;;3.10;;
11238;SDS011;5677;48.488;13.436;2024-01-10T05:23:39;4.00;;;2.83;;
11238;SDS011;5677;48.488;13.436;2024-01-10T05:26:06;4.13;;;2.70;;
11238;SDS011;5677;48.488;13.436;2024-01-10T05:28:33;4.10;;;2.53;;
11238;SDS011;5677;48.488;13.436;2024-01-10T05:30:59;4.10;;;2.83;;
11238;SDS011;5677;48.488;13.436;2024-01-10T05:33:26;2.80;;;2.47;;
11238;SDS011;5677;48.488;13.436;2024-01-10T05:35:54;3.60;;;2.60;;
11238;SDS011;5677;48.488;13.436;2024-01-10T05:38:23;3.60;;;2.87;;
11238;SDS011;5677;48.488;13.436;2024-01-10T05:40:50;3.13;;;2.53;;
11238;SDS011;5677;48.488;13.436;2024-01-10T05:43:17;3.00;;;2.70;;
11238;SDS011;5677;48.488;13.436;2024-01-10T05:45:43;2.50;;;2.27;;
11238;SDS011;5677;48.488;13.436;2024-01-10T05:48:10;3.50;;;2.70;;
11238;SDS011;5677;48.488;13.436;2024-01-10T05:50:37;3.00;;;2.50;;
11238;SDS011;5677;48.488;13.436;2024-01-10T05:53:05;3.07;;;2.67;;
11238;SDS011;5677;48.488;13.436;2024-01-10T05:55:33;3.17;;;2.73;;
11238;SDS011;5677;48.488;13.436;2024-01-10T05:58:01;3.30;;;2.67;;
11238;SDS011;5677;48.488;13.436;2024-01-10T06:00:28;3.40;;;2.70;;
11238;SDS011;5677;48.488;13.436;2024-01-10T06:02:55;3.77;;;3.10;;
11238;SDS011;5677;48.488;13.436;2024-01-10T06:05:22;4.43;;;3.30;;
11238;SDS011;5677;48.488;13.436;2024-01-10T06:07:48;3.63;;;2.57;;
11238;SDS011;5677;48.488;13.436;2024-01-10T06:10:16;3.53;;;3.00;;
11238;SDS011;5677;48.488;13.436;2024-01-10T06:12:43;3.57;;;3.13;;
11238;SDS011;5677;48.488;13.436;2024-01-10T06:15:10;3.37;;;2.73;;
11238;SDS011;5677;48.488;13.436;2024-01-10T06:17:37;4.17;;;2.50;;
11238;SDS011;5677;48.488;13.436;2024-01-10T06:20:04;4.53;;;3.30;;
11238;SDS011;5677;48.488;13.436;2024-01-10T06:22:32;3.27;;;2.43;;
11238;SDS011;5677;48.488;13.436;2024-01-10T06:24:59;3.20;;;2.47;;
11238;SDS011;5677;48.488;13.436;2024-01-10T06:27:27;2.83;;;2.43;;
11238;SDS011;5677;48.488;13.436;2024-01-10T06:29:55;3.60;;;2.63;;
11238;SDS011;5677;48.488;13.436;2024-01-10T06:32:21;3.37;;;2.60;;
11238;SDS011;5677;48.488;13.436;2024-01-10T06:34:48;3.17;;;2.70;;
11238;SDS011;5677;48.488;13.436;2024-01-10T06:37:15;3.10;;;2.80;;
11238;SDS011;5677;48.488;13.436;2024-01-10T06:39:42;3.90;;;2.90;;
11238;SDS011;5677;48.488;13.436;2024-01-10T06:42:09;3.40;;;2.87;;
11238;SDS011;5677;48.488;13.436;2024-01-10T06:44:38;3.40;;;2.93;;
11238;SDS011;5677;48.488;13.436;2024-01-10T06:47:05;3.27;;;2.70;;
11238;SDS011;5677;48.488;13.436;2024-01-10T06:49:32;3.67;;;2.63;;
11238;SDS011;5677;48.488;13.436;2024-01-10T06:51:59;3.17;;;2.80;;
11238;SDS011;5677;48.488;13.436;2024-01-10T06:54:26;3.23;;;2.50;;
11238;SDS011;5677;48.488;13.436;2024-01-10T06:56:53;3.57;;;2.73;;
11238;SDS011;5677;48.488;13.436;2024-01-10T06:59:19;3.10;;;2.30;;
11238;SDS011;5677;48.488;13.436;2024-01-10T07:01:52;3.07;;;2.40;;
11238;SDS011;5677;48.488;13.436;2024-01-10T07:04:21;2.93;;;2.63;;
11238;SDS011;5677;48.488;13.436;2024-01-10T07:06:48;3.93;;;3.00;;
11238;SDS011;5677;48.488;13.436;2024-01-10T07:09:15;3.27;;;2.90;;
11238;SDS011;5677;48.488;13.436;2024-01-10T07:11:44;3.87;;;2.60;;
11238;SDS011;5677;48.488;13.436;2024-01-10T07:14:12;2.90;;;2.60;;
11238;SDS011;5677;48.488;13.436;2024-01-10T07:16:39;3.30;;;2.60;;
11238;SDS011;5677;48.488;13.436;2024-01-10T07:19:08;3.00;;;2.70;;
11238;SDS011;5677;48.488;13.436;2024-01-10T07:21:38;4.80;;;3.13;;
11238;SDS011;5677;48.488;13.436;2024-01-10T07:24:05;4.13;;;3.00;;
11238;SDS011;5677;48.488;13.436;2024-01-10T07:26:33;3.07;;;2.77;;
11238;SDS011;5677;48.488;13.436;2024-01-10T07:29:00;3.77;;;2.63;;
11238;SDS011;5677;48.488;13.436;2024-01-10T07:31:27;4.77;;;3.07;;
11238;SDS011;5677;48.488;13.436;2024-01-10T07:33:54;3.60;;;3.07;;
11238;SDS011;5677;48.488;13.436;2024-01-10T07:36:23;2.97;;;2.63;;
11238;SDS011;5677;48.488;13.436;2024-01-10T07:38:51;3.93;;;3.00;;
11238;SDS011;5677;48.488;13.436;2024-01-10T07:41:18;3.57;;;3.23;;
11238;SDS011;5677;48.488;13.436;2024-01-10T07:43:45;3.50;;;2.90;;
11238;SDS011;5677;48.488;13.436;2024-01-10T07:46:12;3.97;;;2.90;;
11238;SDS011;5677;48.488;13.436;2024-01-10T07:48:38;3.53;;;2.77;;
11238;SDS011;5677;48.488;13.436;2024-01-10T07:51:05;2.90;;;2.37;;
11238;SDS011;5677;48.488;13.436;2024-01-10T07:53:34;3.07;;;2.77;;
11238;SDS011;5677;48.488;13.436;2024-01-10T07:56:02;3.73;;;3.07;;
11238;SDS011;5677;48.488;13.436;2024-01-10T07:58:29;3.77;;;3.10;;
11238;SDS011;5677;48.488;13.436;2024-01-10T08:00:55;3.97;;;3.27;;
11238;SDS011;5677;48.488;13.436;2024-01-10T08:03:22;4.57;;;3.13;;
11238;SDS011;5677;48.488;13.436;2024-01-10T08:05:49;3.27;;;2.83;;
11238;SDS011;5677;48.488;13.436;2024-01-10T08:08:16;3.67;;;2.77;;
11238;SDS011;5677;48.488;13.436;2024-01-10T08:10:44;3.33;;;2.73;;
11238;SDS011;5677;48.488;13.436;2024-01-10T08:13:11;4.03;;;2.80;;
11238;SDS011;5677;48.488;13.436;2024-01-10T08:15:37;3.93;;;2.90;;
11238;SDS011;5677;48.488;13.436;2024-01-10T08:18:04;3.60;;;3.23;;
11238;SDS011;5677;48.488;13.436;2024-01-10T08:20:32;3.13;;;2.83;;
11238;SDS011;5677;48.488;13.436;2024-01-10T08:22:59;3.50;;;2.70;;
11238;SDS011;5677;48.488;13.436;2024-01-10T08:25:26;4.33;;;3.30;;
11238;SDS011;5677;48.488;13.436;2024-01-10T08:27:54;3.43;;;2.43;;
11238;SDS011;5677;48.488;13.436;2024-01-10T08:30:22;3.70;;;3.00;;
11238;SDS011;5677;48.488;13.436;2024-01-10T08:32:49;3.77;;;3.00;;
11238;SDS011;5677;48.488;13.436;2024-01-10T08:35:15;3.80;;;3.00;;
11238;SDS011;5677;48.488;13.436;2024-01-10T08:37:43;4.23;;;3.00;;
11238;SDS011;5677;48.488;13.436;2024-01-10T08:40:11;3.70;;;3.00;;
11238;SDS011;5677;48.488;13.436;2024-01-10T08:42:40;4.37;;;3.03;;
11238;SDS011;5677;48.488;13.436;2024-01-10T08:45:08;3.80;;;3.00;;
11238;SDS011;5677;48.488;13.436;2024-01-10T08:47:36;3.30;;;2.97;;
11238;SDS011;5677;48.488;13.436;2024-01-10T08:50:03;3.70;;;3.17;;
11238;SDS011;5677;48.488;13.436;2024-01-10T08:52:33;4.23;;;2.70;;
11238;SDS011;5677;48.488;13.436;2024-01-10T08:55:00;4.03;;;3.27;;
11238;SDS011;5677;48.488;13.436;2024-01-10T08:57:27;3.73;;;3.30;;
11238;SDS011;5677;48.488;13.436;2024-01-10T08:59:54;4.50;;;3.20;;
11238;SDS011;5677;48.488;13.436;2024-01-10T09:02:23;4.07;;;3.17;;
11238;SDS011;5677;48.488;13.436;2024-01-10T09:04:52;4.20;;;3.30;;
11238;SDS011;5677;48.488;13.436;2024-01-10T09:07:19;4.23;;;3.30;;
11238;SDS011;5677;48.488;13.436;2024-01-10T09:09:46;4.17;;;2.90;;
11238;SDS011;5677;48.488;13.436;2024-01-10T09:12:13;4.43;;;3.07;;
11238;SDS011;5677;48.488;13.436;2024-01-10T09:14:40;3.60;;;2.90;;
11238;SDS011;5677;48.488;13.436;2024-01-10T09:17:07;3.87;;;3.20;;
11238;SDS011;5677;48.488;13.436;2024-01-10T09:19:35;5.07;;;3.30;;
11238;SDS011;5677;48.488;13.436;2024-01-10T09:22:01;4.57;;;3.10;;
11238;SDS011;5677;48.488;13.436;2024-01-10T09:24:29;3.90;;;2.93;;
11238;SDS011;5677;48.488;13.436;2024-01-10T09:26:55;3.53;;;2.97;;
11238;SDS011;5677;48.488;13.436;2024-01-10T09:29:23;4.20;;;3.00;;
11238;SDS011;5677;48.488;13.436;2024-01-10T09:31:50;4.27;;;3.10;;
11238;SDS011;5677;48.488;13.436;2024-01-10T09:34:17;4.70;;;3.00;;
11238;SDS011;5677;48.488;13.436;2024-01-10T09:36:45;3.30;;;2.80;;
11238;SDS011;5677;48.488;13.436;2024-01-10T09:39:12;3.60;;;2.80;;
11238;SDS011;5677;48.488;13.436;2024-01-10T09:41:45;3.37;;;2.80;;
11238;SDS011;5677;48.488;13.436;2024-01-10T09:44:13;4.37;;;3.40;;
11238;SDS011;5677;48.488;13.436;2024-01-10T09:46:41;4.73;;;3.30;;
11238;SDS011;5677;48.488;13.436;2024-01-10T09:49:10;5.13;;;3.30;;
11238;SDS011;5677;48.488;13.436;2024-01-10T09:51:37;3.83;;;2.97;;
11238;SDS011;5677;48.488;13.436;2024-01-10T09:54:05;4.50;;;3.30;;
11238;SDS011;5677;48.488;13.436;2024-01-10T09:56:32;4.30;;;3.30;;
11238;SDS011;5677;48.488;13.436;2024-01-10T09:59:00;3.97;;;2.97;;
11238;SDS011;5677;48.488;13.436;2024-01-10T10:01:29;4.20;;;3.40;;
11238;SDS011;5677;48.488;13.436;2024-01-10T10:03:56;3.77;;;3.27;;
11238;SDS011;5677;48.488;13.436;2024-01-10T10:06:23;3.20;;;2.70;;
11238;SDS011;5677;48.488;13.436;2024-01-10T10:08:50;4.23;;;3.30;;
11238;SDS011;5677;48.488;13.436;2024-01-10T10:11:19;4.03;;;2.90;;
11238;SDS011;5677;48.488;13.436;2024-01-10T10:13:46;4.33;;;3.00;;
11238;SDS011;5677;48.488;13.436;2024-01-10T10:16:12;4.43;;;3.03;;
11238;SDS011;5677;48.488;13.436;2024-01-10T10:18:39;3.67;;;2.93;;
11238;SDS011;5677;48.488;13.436;2024-01-10T10:21:08;5.23;;;3.43;;
11238;SDS011;5677;48.488;13.436;2024-01-10T10:23:36;3.30;;;2.90;;
11238;SDS011;5677;48.488;13.436;2024-01-10T10:26:10;3.97;;;3.30;;
11238;SDS011;5677;48.488;13.436;2024-01-10T10:28:40;3.60;;;3.10;;
11238;SDS011;5677;48.488;13.436;2024-01-10T10:31:07;4.50;;;3.33;;
11238;SDS011;5677;48.488;13.436;2024-01-10T10:33:34;4.17;;;3.10;;
11238;SDS011;5677;48.488;13.436;2024-01-10T10:36:02;4.37;;;3.17;;
11238;SDS011;5677;48.488;13.436;2024-01-10T10:38:29;3.43;;;3.13;;
11238;SDS011;5677;48.488;13.436;2024-01-10T10:40:55;4.27;;;3.07;;
11238;SDS011;5677;48.488;13.436;2024-01-10T10:43:24;3.87;;;3.07;;
11238;SDS011;5677;48.488;13.436;2024-01-10T10:45:53;4.57;;;3.23;;
11238;SDS011;5677;48.488;13.436;2024-01-10T10:48:22;4.43;;;3.30;;
11238;SDS011;5677;48.488;13.436;2024-01-10T10:50:53;5.23;;;3.40;;
11238;SDS011;5677;48.488;13.436;2024-01-10T10:53:25;4.43;;;3.10;;
11238;SDS011;5677;48.488;13.436;2024-01-10T10:55:55;4.57;;;3.33;;
11238;SDS011;5677;48.488;13.436;2024-01-10T10:58:25;4.30;;;3.20;;
11238;SDS011;5677;48.488;13.436;2024-01-10T11:00:54;3.97;;;2.90;;
11238;SDS011;5677;48.488;13.436;2024-01-10T11:03:22;4.13;;;3.50;;
11238;SDS011;5677;48.488;13.436;2024-01-10T11:05:51;4.67;;;3.30;;
11238;SDS011;5677;48.488;13.436;2024-01-10T11:08:18;4.00;;;3.23;;
11238;SDS011;5677;48.488;13.436;2024-01-10T11:10:48;4.27;;;3.30;;
11238;SDS011;5677;48.488;13.436;2024-01-10T11:13:22;4.07;;;3.10;;
11238;SDS011;5677;48.488;13.436;2024-01-10T11:15:59;3.87;;;2.90;;
11238;SDS011;5677;48.488;13.436;2024-01-10T11:21:34;3.60;;;2.80;;
11238;SDS011;5677;48.488;13.436;2024-01-10T11:24:12;5.40;;;3.60;;
11238;SDS011;5677;48.488;13.436;2024-01-10T11:26:39;4.03;;;3.20;;
11238;SDS011;5677;48.488;13.436;2024-01-10T11:29:06;4.40;;;3.17;;
11238;SDS011;5677;48.488;13.436;2024-01-10T11:31:34;4.70;;;3.20;;
11238;SDS011;5677;48.488;13.436;2024-01-10T11:34:01;4.00;;;3.20;;
11238;SDS011;5677;48.488;13.436;2024-01-10T11:36:28;4.43;;;3.20;;
11238;SDS011;5677;48.488;13.436;2024-01-10T11:38:57;4.40;;;3.27;;
11238;SDS011;5677;48.488;13.436;2024-01-10T11:41:27;4.47;;;3.47;;
11238;SDS011;5677;48.488;13.436;2024-01-10T11:46:54;4.10;;;3.30;;
11238;SDS011;5677;48.488;13.436;2024-01-10T11:49:21;4.53;;;3.17;;
11238;SDS011;5677;48.488;13.436;2024-01-10T11:51:50;5.10;;;3.33;;
11238;SDS011;5677;48.488;13.436;2024-01-10T11:54:37;3.20;;;2.90;;
11238;SDS011;5677;48.488;13.436;2024-01-10T11:57:10;4.13;;;3.23;;
11238;SDS011;5677;48.488;13.436;2024-01-10T11:59:38;4.27;;;3.17;;
11238;SDS011;5677;48.488;13.436;2024-01-10T12:02:08;4.43;;;3.53;;
11238;SDS011;5677;48.488;13.436;2024-01-10T12:04:36;4.53;;;3.10;;
11238;SDS011;5677;48.488;13.436;2024-01-10T12:07:02;3.47;;;3.07;;
11238;SDS011;5677;48.488;13.436;2024-01-10T12:09:31;4.43;;;3.40;;
11238;SDS011;5677;48.488;13.436;2024-01-10T12:11:57;4.03;;;3.30;;
11238;SDS011;5677;48.488;13.436;2024-01-10T12:14:24;5.00;;;3.27;;
11238;SDS011;5677;48.488;13.436;2024-01-10T12:16:52;4.13;;;3.33;;
11238;SDS011;5677;48.488;13.436;2024-01-10T12:19:20;4.07;;;3.47;;
11238;SDS011;5677;48.488;13.436;2024-01-10T12:21:48;4.33;;;3.20;;
11238;SDS011;5677;48.488;13.436;2024-01-10T12:24:14;4.83;;;3.50;;
11238;SDS011;5677;48.488;13.436;2024-01-10T12:26:44;5.03;;;3.37;;
11238;SDS011;5677;48.488;13.436;2024-01-10T12:29:11;3.80;;;2.90;;
11238;SDS011;5677;48.488;13.436;2024-01-10T12:31:38;4.33;;;3.60;;
11238;SDS011;5677;48.488;13.436;2024-01-10T12:34:06;4.77;;;3.20;;
11238;SDS011;5677;48.488;13.436;2024-01-10T12:36:35;3.80;;;3.10;;
11238;SDS011;5677;48.488;13.436;2024-01-10T12:39:02;3.70;;;3.33;;
11238;SDS011;5677;48.488;13.436;2024-01-10T12:41:31;3.70;;;3.30;;
11238;SDS011;5677;48.488;13.436;2024-01-10T12:43:59;3.43;;;3.10;;
11238;SDS011;5677;48.488;13.436;2024-01-10T12:46:28;3.90;;;3.30;;
11238;SDS011;5677;48.488;13.436;2024-01-10T12:48:59;4.57;;;3.23;;
11238;SDS011;5677;48.488;13.436;2024-01-10T12:51:27;5.57;;;3.60;;
11238;SDS011;5677;48.488;13.436;2024-01-10T12:53:56;3.77;;;3.30;;
11238;SDS011;5677;48.488;13.436;2024-01-10T12:56:24;4.63;;;3.43;;
11238;SDS011;5677;48.488;13.436;2024-01-10T12:58:51;4.20;;;3.43;;
11238;SDS011;5677;48.488;13.436;2024-01-10T13:01:18;5.67;;;3.90;;
11238;SDS011;5677;48.488;13.436;2024-01-10T13:03:45;4.37;;;3.43;;
11238;SDS011;5677;48.488;13.436;2024-01-10T13:06:13;4.67;;;3.50;;
11238;SDS011;5677;48.488;13.436;2024-01-10T13:08:40;4.67;;;3.60;;
11238;SDS011;5677;48.488;13.436;2024-01-10T13:11:08;4.50;;;3.60;;
11238;SDS011;5677;48.488;13.436;2024-01-10T13:13:35;3.40;;;3.10;;
11238;SDS011;5677;48.488;13.436;2024-01-10T13:16:02;4.87;;;3.50;;
11238;SDS011;5677;48.488;13.436;2024-01-10T13:18:29;5.00;;;3.57;;
11238;SDS011;5677;48.488;13.436;2024-01-10T13:20:56;4.97;;;3.37;;
11238;SDS011;5677;48.488;13.436;2024-01-10T13:23:23;4.23;;;3.43;;
11238;SDS011;5677;48.488;13.436;2024-01-10T13:25:50;5.20;;;3.80;;
11238;SDS011;5677;48.488;13.436;2024-01-10T13:28:19;3.90;;;3.20;;
11238;SDS011;5677;48.488;13.436;2024-01-10T13:30:45;4.67;;;3.53;;
11238;SDS011;5677;48.488;13.436;2024-01-10T13:33:12;4.30;;;3.20;;
11238;SDS011;5677;48.488;13.436;2024-01-10T13:35:39;5.57;;;3.77;;
11238;SDS011;5677;48.488;13.436;2024-01-10T13:38:06;5.07;;;3.60;;
11238;SDS011;5677;48.488;13.436;2024-01-10T13:40:33;4.13;;;3.60;;
11238;SDS011;5677;48.488;13.436;2024-01-10T13:43:00;4.03;;;3.13;;
11238;SDS011;5677;48.488;13.436;2024-01-10T13:45:29;3.97;;;3.40;;
11238;SDS011;5677;48.488;13.436;2024-01-10T13:47:55;5.23;;;3.37;;
11238;SDS011;5677;48.488;13.436;2024-01-10T13:50:22;5.00;;;3.57;;
11238;SDS011;5677;48.488;13.436;2024-01-10T13:52:50;4.10;;;3.47;;
11238;SDS011;5677;48.488;13.436;2024-01-10T13:55:18;4.20;;;3.37;;
11238;SDS011;5677;48.488;13.436;2024-01-10T13:57:45;5.50;;;3.50;;
11238;SDS011;5677;48.488;13.436;2024-01-10T14:00:12;3.50;;;3.20;;
11238;SDS011;5677;48.488;13.436;2024-01-10T14:02:42;4.87;;;3.57;;
11238;SDS011;5677;48.488;13.436;2024-01-10T14:05:09;4.77;;;3.30;;
11238;SDS011;5677;48.488;13.436;2024-01-10T14:07:35;4.23;;;3.30;;
11238;SDS011;5677;48.488;13.436;2024-01-10T14:10:03;4.73;;;3.40;;
11238;SDS011;5677;48.488;13.436;2024-01-10T14:12:30;4.03;;;3.33;;
11238;SDS011;5677;48.488;13.436;2024-01-10T14:14:57;4.67;;;3.63;;
11238;SDS011;5677;48.488;13.436;2024-01-10T14:17:25;3.73;;;3.17;;
11238;SDS011;5677;48.488;13.436;2024-01-10T14:19:53;5.20;;;3.30;;
11238;SDS011;5677;48.488;13.436;2024-01-10T14:22:19;4.17;;;3.50;;
11238;SDS011;5677;48.488;13.436;2024-01-10T14:24:48;5.60;;;3.63;;
11238;SDS011;5677;48.488;13.436;2024-01-10T14:27:16;5.13;;;3.53;;
11238;SDS011;5677;48.488;13.436;2024-01-10T14:29:42;4.70;;;3.60;;
11238;SDS011;5677;48.488;13.436;2024-01-10T14:32:09;4.57;;;3.40;;
11238;SDS011;5677;48.488;13.436;2024-01-10T14:34:38;4.43;;;3.17;;
11238;SDS011;5677;48.488;13.436;2024-01-10T14:37:07;4.67;;;3.40;;
11238;SDS011;5677;48.488;13.436;2024-01-10T14:39:34;4.97;;;3.63;;
11238;SDS011;5677;48.488;13.436;2024-01-10T14:42:04;3.83;;;3.27;;
11238;SDS011;5677;48.488;13.436;2024-01-10T14:44:31;4.23;;;3.33;;
11238;SDS011;5677;48.488;13.436;2024-01-10T14:46:59;3.70;;;3.27;;
11238;SDS011;5677;48.488;13.436;2024-01-10T14:49:26;4.47;;;3.37;;
11238;SDS011;5677;48.488;13.436;2024-01-10T14:51:52;4.17;;;3.53;;
11238;SDS011;5677;48.488;13.436;2024-01-10T14:54:20;4.43;;;3.00;;
11238;SDS011;5677;48.488;13.436;2024-01-10T14:56:47;4.23;;;3.30;;